Time;durP1;ratioP1;P1;durP2;ratioP2;P2;SDS_P1;SDS_P2;PMS_P1;PMS_P2;Temp;Humidity;BMP_temperature;BMP_pressure;BME280_temperature;BME280_humidity;BME280_pressure;Samples;Min_cycle;Max_cycle;Signal;HPM_P1;HPM_P2
2022/03/04 00:00:43;;;;;;;24.77;16.00;;;;;;;;;;5028251;28;20211;-59
2022/03/04 00:03:09;;;;;;;25.97;16.47;;;;;;;;;;5029567;28;20577;-59
2022/03/04 00:05:35;;;;;;;24.10;15.77;;;;;;;;;;5030352;28;20730;-59
2022/03/04 00:08:00;;;;;;;23.77;15.40;;;;;;;;;;5029394;28;20212;-59
2022/03/04 00:10:25;;;;;;;26.93;16.03;;;;;;;;;;5032668;28;20515;-59
2022/03/04 00:12:50;;;;;;;26.87;15.67;;;;;;;;;;5034196;28;20247;-59
2022/03/04 00:15:16;;;;;;;23.45;14.75;;;;;;;;;;5032966;28;20230;-59
2022/03/04 00:17:41;;;;;;;25.70;15.80;;;;;;;;;;5033943;28;20303;-59
2022/03/04 00:20:08;;;;;;;25.47;15.93;;;;;;;;;;5033717;28;20366;-59
2022/03/04 00:22:33;;;;;;;23.77;15.13;;;;;;;;;;5033299;28;20401;-59
2022/03/04 00:24:58;;;;;;;24.00;15.27;;;;;;;;;;5034151;28;20691;-59
2022/03/04 00:27:24;;;;;;;24.27;15.37;;;;;;;;;;5051253;28;20348;-59
2022/03/04 00:29:49;;;;;;;23.20;15.30;;;;;;;;;;5053079;28;20214;-59
2022/03/04 00:32:14;;;;;;;25.03;15.63;;;;;;;;;;5053340;28;20274;-59
2022/03/04 00:34:39;;;;;;;22.90;14.37;;;;;;;;;;5053629;28;20211;-59
2022/03/04 00:37:05;;;;;;;24.17;15.10;;;;;;;;;;5052563;28;20229;-59
2022/03/04 00:39:30;;;;;;;26.00;15.70;;;;;;;;;;5053751;28;20203;-59
2022/03/04 00:41:56;;;;;;;24.10;15.77;;;;;;;;;;5053742;28;20210;-59
2022/03/04 00:44:21;;;;;;;25.10;15.13;;;;;;;;;;5046870;28;20216;-59
2022/03/04 00:46:46;;;;;;;24.60;14.77;;;;;;;;;;5032203;28;20262;-59
2022/03/04 00:49:11;;;;;;;25.67;15.23;;;;;;;;;;5031914;28;20230;-59
2022/03/04 00:51:37;;;;;;;21.13;14.53;;;;;;;;;;5033431;28;20219;-59
2022/03/04 00:54:02;;;;;;;27.10;16.37;;;;;;;;;;5032960;28;20315;-58
2022/03/04 00:56:27;;;;;;;23.60;15.77;;;;;;;;;;5032853;28;20634;-59
2022/03/04 00:58:52;;;;;;;21.87;14.27;;;;;;;;;;5033365;28;20679;-59
2022/03/04 01:01:18;;;;;;;24.10;15.57;;;;;;;;;;5032822;28;20212;-59
2022/03/04 01:03:43;;;;;;;24.52;14.48;;;;;;;;;;5032312;28;20215;-59
2022/03/04 01:06:08;;;;;;;25.63;16.60;;;;;;;;;;5032748;28;20208;-59
2022/03/04 01:08:34;;;;;;;25.83;16.13;;;;;;;;;;5033146;28;20564;-59
2022/03/04 01:10:59;;;;;;;24.77;16.20;;;;;;;;;;5032423;28;20345;-59
2022/03/04 01:13:24;;;;;;;26.20;15.38;;;;;;;;;;5032651;28;20211;-59
2022/03/04 01:15:50;;;;;;;25.03;15.93;;;;;;;;;;5031847;28;20287;-59
2022/03/04 01:18:15;;;;;;;23.23;15.83;;;;;;;;;;5031664;28;20705;-59
2022/03/04 01:20:40;;;;;;;22.52;14.75;;;;;;;;;;5032354;28;20208;-59
2022/03/04 01:23:05;;;;;;;23.77;13.83;;;;;;;;;;5032481;28;20214;-59
2022/03/04 01:25:32;;;;;;;23.00;14.87;;;;;;;;;;5034604;28;20215;-59
2022/03/04 01:27:57;;;;;;;21.80;14.30;;;;;;;;;;5052670;28;20756;-59
2022/03/04 01:30:22;;;;;;;27.00;15.13;;;;;;;;;;5052221;28;20223;-59
2022/03/04 01:32:48;;;;;;;23.27;14.00;;;;;;;;;;5051792;28;20203;-59
2022/03/04 01:35:14;;;;;;;23.40;14.70;;;;;;;;;;5051930;28;20210;-59
2022/03/04 01:37:39;;;;;;;23.53;14.50;;;;;;;;;;5052656;28;20659;-59
2022/03/04 01:40:05;;;;;;;22.70;14.07;;;;;;;;;;5051147;28;20257;-59
2022/03/04 01:42:30;;;;;;;24.17;14.23;;;;;;;;;;5052686;28;20207;-59
2022/03/04 01:44:56;;;;;;;23.77;14.43;;;;;;;;;;5040939;28;20207;-59
2022/03/04 01:47:21;;;;;;;25.67;14.90;;;;;;;;;;5030963;28;20224;-59
2022/03/04 01:49:46;;;;;;;22.43;13.30;;;;;;;;;;5032260;28;20708;-59
2022/03/04 01:52:12;;;;;;;25.00;14.30;;;;;;;;;;5031931;28;20316;-59
2022/03/04 01:54:37;;;;;;;22.97;13.87;;;;;;;;;;5031658;28;20231;-59
2022/03/04 01:57:02;;;;;;;24.00;14.60;;;;;;;;;;5031923;28;20242;-58
2022/03/04 01:59:27;;;;;;;23.10;13.70;;;;;;;;;;5033369;28;20262;-59
2022/03/04 02:01:53;;;;;;;23.67;13.97;;;;;;;;;;5041300;28;20220;-59
2022/03/04 02:04:19;;;;;;;22.30;13.50;;;;;;;;;;5031754;28;20215;-59
2022/03/04 02:06:45;;;;;;;19.37;12.40;;;;;;;;;;5031320;28;20733;-59
2022/03/04 02:09:10;;;;;;;24.67;14.17;;;;;;;;;;5031714;28;20235;-59
2022/03/04 02:11:38;;;;;;;23.00;14.30;;;;;;;;;;5031881;28;20212;-59
2022/03/04 02:14:04;;;;;;;22.30;14.10;;;;;;;;;;5031025;28;20212;-58
2022/03/04 02:16:34;;;;;;;24.30;14.50;;;;;;;;;;5031923;28;20277;-59
2022/03/04 02:19:00;;;;;;;23.07;14.20;;;;;;;;;;5032080;28;20204;-59
2022/03/04 02:21:25;;;;;;;23.87;14.53;;;;;;;;;;5030503;28;20218;-59
2022/03/04 02:23:50;;;;;;;24.27;15.07;;;;;;;;;;5031919;28;20207;-59
2022/03/04 02:26:15;;;;;;;23.53;15.17;;;;;;;;;;5039759;28;20207;-59
2022/03/04 02:28:41;;;;;;;22.33;13.60;;;;;;;;;;5051017;28;20222;-59
2022/03/04 02:31:06;;;;;;;24.53;14.47;;;;;;;;;;5050846;28;20211;-59
2022/03/04 02:33:31;;;;;;;23.93;15.20;;;;;;;;;;5051199;28;20286;-59
2022/03/04 02:35:56;;;;;;;23.77;14.83;;;;;;;;;;5050540;28;20207;-59
2022/03/04 02:38:22;;;;;;;22.37;14.07;;;;;;;;;;5051064;28;20207;-59
2022/03/04 02:40:47;;;;;;;23.37;14.67;;;;;;;;;;5051646;28;20215;-59
2022/03/04 02:43:12;;;;;;;24.17;14.13;;;;;;;;;;5048967;28;20594;-58
2022/03/04 02:45:37;;;;;;;23.63;14.27;;;;;;;;;;5035442;28;20611;-59
2022/03/04 02:48:03;;;;;;;23.27;13.93;;;;;;;;;;5030669;28;20286;-59
2022/03/04 02:50:28;;;;;;;19.97;13.00;;;;;;;;;;5030538;28;20242;-59
2022/03/04 02:52:54;;;;;;;24.37;13.93;;;;;;;;;;5031312;28;20208;-59
2022/03/04 02:55:19;;;;;;;23.97;14.10;;;;;;;;;;5031122;28;20219;-59
2022/03/04 02:57:45;;;;;;;23.43;14.77;;;;;;;;;;5030572;28;20211;-59
2022/03/04 03:00:10;;;;;;;22.13;14.43;;;;;;;;;;5030752;28;20223;-58
2022/03/04 03:02:36;;;;;;;24.50;13.87;;;;;;;;;;5029737;28;20207;-59
2022/03/04 03:05:01;;;;;;;20.70;13.47;;;;;;;;;;5030179;28;20207;-58
2022/03/04 03:07:26;;;;;;;25.10;13.57;;;;;;;;;;5030849;28;20295;-58
2022/03/04 03:09:52;;;;;;;23.77;13.47;;;;;;;;;;5030591;28;20605;-59
2022/03/04 03:12:17;;;;;;;22.53;14.37;;;;;;;;;;5030318;28;20224;-58
2022/03/04 03:14:42;;;;;;;22.50;13.97;;;;;;;;;;5031104;28;20211;-59
2022/03/04 03:17:07;;;;;;;25.17;15.30;;;;;;;;;;5029651;28;20204;-58
2022/03/04 03:19:33;;;;;;;24.47;14.73;;;;;;;;;;5031000;28;20262;-59
2022/03/04 03:21:58;;;;;;;24.50;14.80;;;;;;;;;;5030596;28;20695;-59
2022/03/04 03:24:23;;;;;;;23.40;13.87;;;;;;;;;;5029579;28;20281;-59
2022/03/04 03:26:48;;;;;;;24.07;14.73;;;;;;;;;;5043864;28;20666;-59
2022/03/04 03:29:14;;;;;;;23.50;13.67;;;;;;;;;;5050082;28;20332;-59
2022/03/04 03:31:39;;;;;;;26.70;14.73;;;;;;;;;;5049856;28;20219;-59
2022/03/04 03:34:04;;;;;;;24.03;14.30;;;;;;;;;;5048983;28;20207;-58
2022/03/04 03:36:29;;;;;;;26.30;14.13;;;;;;;;;;5050402;28;20717;-58
2022/03/04 03:38:55;;;;;;;24.43;14.73;;;;;;;;;;5048418;28;20268;-59
2022/03/04 03:41:20;;;;;;;22.70;13.80;;;;;;;;;;5050215;28;20219;-59
2022/03/04 03:43:45;;;;;;;24.93;13.83;;;;;;;;;;5049723;28;20626;-59
2022/03/04 03:46:10;;;;;;;25.13;14.47;;;;;;;;;;5029489;28;20211;-58
2022/03/04 03:48:39;;;;;;;22.60;14.00;;;;;;;;;;5030084;28;20329;-59
2022/03/04 03:51:05;;;;;;;24.77;14.33;;;;;;;;;;5029982;28;20218;-58
2022/03/04 03:53:30;;;;;;;22.77;14.23;;;;;;;;;;5029671;28;20204;-59
2022/03/04 03:55:55;;;;;;;22.97;13.83;;;;;;;;;;5030517;28;20254;-59
2022/03/04 03:58:20;;;;;;;24.13;13.47;;;;;;;;;;5029914;28;20660;-59
2022/03/04 04:00:46;;;;;;;22.83;14.33;;;;;;;;;;5029671;28;20270;-59
2022/03/04 04:03:11;;;;;;;23.97;14.27;;;;;;;;;;5030047;28;20306;-59
2022/03/04 04:05:36;;;;;;;23.47;14.20;;;;;;;;;;5030414;28;20212;-59
2022/03/04 04:08:01;;;;;;;22.83;14.27;;;;;;;;;;5028765;28;20251;-57
2022/03/04 04:10:27;;;;;;;23.20;14.63;;;;;;;;;;5030385;28;20222;-59
2022/03/04 04:12:52;;;;;;;26.50;13.90;;;;;;;;;;5030583;28;20212;-59
2022/03/04 04:15:18;;;;;;;25.87;14.17;;;;;;;;;;5029144;28;20621;-58
2022/03/04 04:17:44;;;;;;;24.80;14.20;;;;;;;;;;5030260;28;20696;-59
2022/03/04 04:20:09;;;;;;;27.20;15.13;;;;;;;;;;5029623;28;20220;-58
2022/03/04 04:22:34;;;;;;;24.50;14.10;;;;;;;;;;5029463;28;20636;-59
2022/03/04 04:25:00;;;;;;;24.10;15.30;;;;;;;;;;5030291;28;20667;-59
2022/03/04 04:27:25;;;;;;;23.77;14.67;;;;;;;;;;5046888;28;20208;-59
2022/03/04 04:29:50;;;;;;;23.80;14.00;;;;;;;;;;5049876;28;20207;-59
2022/03/04 04:32:15;;;;;;;25.23;15.40;;;;;;;;;;5049632;28;20203;-59
2022/03/04 04:34:41;;;;;;;25.63;14.90;;;;;;;;;;5047816;28;20582;-59
2022/03/04 04:37:06;;;;;;;24.40;15.10;;;;;;;;;;5049437;28;20295;-58
2022/03/04 04:39:31;;;;;;;27.83;15.77;;;;;;;;;;5048634;28;20207;-59
2022/03/04 04:41:56;;;;;;;24.97;15.70;;;;;;;;;;5049309;28;20634;-59
2022/03/04 04:44:22;;;;;;;26.60;15.30;;;;;;;;;;5043963;28;20216;-59
2022/03/04 04:46:47;;;;;;;23.47;14.93;;;;;;;;;;5029921;28;20211;-59
2022/03/04 04:49:12;;;;;;;27.57;15.60;;;;;;;;;;5028387;28;20232;-59
2022/03/04 04:51:37;;;;;;;26.53;15.13;;;;;;;;;;5030134;28;20266;-59
2022/03/04 04:54:03;;;;;;;23.93;14.43;;;;;;;;;;5029408;28;20970;-58
2022/03/04 04:56:28;;;;;;;25.33;14.83;;;;;;;;;;5031640;28;20689;-58
2022/03/04 04:58:54;;;;;;;23.97;14.43;;;;;;;;;;5033481;28;20211;-59
2022/03/04 05:01:19;;;;;;;23.67;14.27;;;;;;;;;;5032864;28;20223;-59
2022/03/04 05:03:45;;;;;;;27.20;15.33;;;;;;;;;;5032646;28;20686;-59
2022/03/04 05:06:10;;;;;;;26.03;15.43;;;;;;;;;;5032857;28;20327;-58
2022/03/04 05:08:35;;;;;;;24.50;14.40;;;;;;;;;;5032975;28;20238;-59
2022/03/04 05:11:01;;;;;;;25.13;14.23;;;;;;;;;;5032067;28;20215;-59
2022/03/04 05:13:26;;;;;;;24.90;14.17;;;;;;;;;;5033382;28;20718;-59
2022/03/04 05:15:51;;;;;;;27.27;14.90;;;;;;;;;;5033026;28;20569;-59
2022/03/04 05:18:16;;;;;;;24.73;15.23;;;;;;;;;;5031912;28;20224;-58
2022/03/04 05:20:43;;;;;;;25.50;15.37;;;;;;;;;;5032922;28;20542;-59
2022/03/04 05:23:08;;;;;;;24.77;14.27;;;;;;;;;;5032561;28;20301;-58
2022/03/04 05:25:33;;;;;;;25.30;14.97;;;;;;;;;;5034804;28;20674;-59
2022/03/04 05:27:59;;;;;;;27.73;14.67;;;;;;;;;;5052701;28;20231;-59
2022/03/04 05:30:24;;;;;;;24.43;14.70;;;;;;;;;;5052188;28;20253;-59
2022/03/04 05:32:49;;;;;;;24.37;14.67;;;;;;;;;;5052006;28;20614;-59
2022/03/04 05:35:15;;;;;;;27.23;14.70;;;;;;;;;;5052159;28;20280;-58
2022/03/04 05:37:41;;;;;;;25.00;14.30;;;;;;;;;;5052082;28;20218;-58
2022/03/04 05:40:06;;;;;;;26.10;14.73;;;;;;;;;;5052035;28;20337;-59
2022/03/04 05:42:31;;;;;;;24.60;14.67;;;;;;;;;;5052540;28;20214;-59
2022/03/04 05:44:57;;;;;;;24.70;14.27;;;;;;;;;;5041339;28;20216;-59
2022/03/04 05:47:22;;;;;;;24.90;13.87;;;;;;;;;;5031879;28;20258;-59
2022/03/04 05:49:47;;;;;;;26.97;15.50;;;;;;;;;;5032388;28;20730;-59
2022/03/04 05:52:12;;;;;;;23.00;13.80;;;;;;;;;;5031231;28;20204;-58
2022/03/04 05:54:38;;;;;;;23.77;13.93;;;;;;;;;;5032325;28;20334;-59
2022/03/04 05:57:03;;;;;;;25.63;14.60;;;;;;;;;;5031877;28;20594;-58
2022/03/04 05:59:28;;;;;;;22.97;14.23;;;;;;;;;;5031558;28;20687;-58
2022/03/04 06:01:54;;;;;;;27.93;16.00;;;;;;;;;;5032229;28;20697;-59
2022/03/04 06:04:19;;;;;;;24.67;14.60;;;;;;;;;;5031885;28;20219;-58
2022/03/04 06:06:44;;;;;;;25.67;14.53;;;;;;;;;;5031443;28;20578;-59
2022/03/04 06:09:10;;;;;;;25.33;14.93;;;;;;;;;;5031589;28;20523;-58
2022/03/04 06:11:35;;;;;;;25.33;14.47;;;;;;;;;;5034210;28;20219;-59
2022/03/04 06:14:00;;;;;;;25.83;15.83;;;;;;;;;;5039948;28;20204;-59
2022/03/04 06:16:26;;;;;;;23.80;14.40;;;;;;;;;;5031623;28;20216;-59
2022/03/04 06:18:52;;;;;;;26.43;16.30;;;;;;;;;;5031750;28;20220;-59
2022/03/04 06:21:17;;;;;;;23.87;14.97;;;;;;;;;;5030408;28;20216;-59
2022/03/04 06:23:43;;;;;;;31.30;16.90;;;;;;;;;;5031876;28;20211;-58
2022/03/04 06:26:08;;;;;;;24.30;14.57;;;;;;;;;;5038544;28;20207;-63
2022/03/04 06:28:33;;;;;;;25.77;15.87;;;;;;;;;;5029057;28;20314;-63
2022/03/04 06:30:58;;;;;;;26.60;17.00;;;;;;;;;;5052956;28;20422;-63
2022/03/04 06:33:30;;;;;;;26.33;15.03;;;;;;;;;;5052942;28;20206;-60
2022/03/04 06:35:55;;;;;;;25.87;14.10;;;;;;;;;;5070619;28;20272;-60
2022/03/04 06:38:21;;;;;;;25.63;14.83;;;;;;;;;;5052916;28;20214;-60
2022/03/04 06:40:46;;;;;;;24.57;14.13;;;;;;;;;;5054501;28;20271;-61
2022/03/04 06:43:11;;;;;;;26.30;14.47;;;;;;;;;;5050053;28;20221;-61
2022/03/04 06:45:38;;;;;;;26.90;14.63;;;;;;;;;;5066960;28;20598;-60
2022/03/04 06:48:03;;;;;;;26.93;15.03;;;;;;;;;;5070052;28;20222;-60
2022/03/04 06:50:28;;;;;;;23.57;14.57;;;;;;;;;;5053318;28;20218;-60
2022/03/04 06:52:54;;;;;;;28.40;16.10;;;;;;;;;;5071035;28;20241;-60
2022/03/04 06:55:19;;;;;;;24.53;14.87;;;;;;;;;;5051795;28;20225;-61
2022/03/04 06:57:46;;;;;;;27.00;16.27;;;;;;;;;;5070730;28;20214;-61
2022/03/04 07:00:11;;;;;;;26.77;15.47;;;;;;;;;;5052846;28;20206;-61
2022/03/04 07:02:37;;;;;;;25.83;14.97;;;;;;;;;;5052086;28;20210;-61
2022/03/04 07:05:03;;;;;;;27.37;16.30;;;;;;;;;;5070487;28;20264;-58
2022/03/04 07:07:28;;;;;;;27.33;15.60;;;;;;;;;;5070632;28;20214;-59
2022/03/04 07:09:54;;;;;;;26.53;14.90;;;;;;;;;;5070223;28;20537;-61
2022/03/04 07:12:19;;;;;;;26.07;15.10;;;;;;;;;;5069969;28;20214;-61
2022/03/04 07:14:44;;;;;;;26.93;15.03;;;;;;;;;;5036091;28;20634;-60
2022/03/04 07:17:09;;;;;;;29.97;15.97;;;;;;;;;;5069268;28;20214;-60
2022/03/04 07:19:34;;;;;;;28.47;15.60;;;;;;;;;;5070059;28;20220;-61
2022/03/04 07:22:00;;;;;;;28.23;14.43;;;;;;;;;;5070520;28;20210;-60
2022/03/04 07:24:25;;;;;;;26.10;15.23;;;;;;;;;;5069171;28;20210;-60
2022/03/04 07:26:50;;;;;;;31.27;17.00;;;;;;;;;;5056766;28;20207;-59
2022/03/04 07:29:16;;;;;;;29.93;16.13;;;;;;;;;;5031854;28;20316;-60
2022/03/04 07:31:41;;;;;;;28.40;15.93;;;;;;;;;;5049733;28;20374;-60
2022/03/04 07:34:06;;;;;;;27.87;15.47;;;;;;;;;;5031826;28;20219;-60
2022/03/04 07:36:33;;;;;;;28.73;15.93;;;;;;;;;;5050281;28;20211;-60
2022/03/04 07:38:58;;;;;;;29.80;15.93;;;;;;;;;;5049345;28;20256;-60
2022/03/04 07:41:24;;;;;;;28.20;15.60;;;;;;;;;;5049655;28;20614;-60
2022/03/04 07:43:50;;;;;;;27.17;15.53;;;;;;;;;;5051098;28;20210;-60
2022/03/04 07:46:15;;;;;;;26.67;15.43;;;;;;;;;;5068903;28;20219;-60
2022/03/04 07:48:41;;;;;;;26.23;14.90;;;;;;;;;;5051936;28;20491;-58
2022/03/04 07:51:06;;;;;;;29.43;14.67;;;;;;;;;;5069695;28;20206;-58
2022/03/04 07:53:31;;;;;;;27.40;16.10;;;;;;;;;;5069292;28;20210;-58
2022/03/04 07:55:56;;;;;;;29.17;16.80;;;;;;;;;;5066461;28;20208;-58
2022/03/04 07:58:22;;;;;;;25.63;15.43;;;;;;;;;;5068609;28;20210;-58
2022/03/04 08:00:47;;;;;;;26.93;14.97;;;;;;;;;;5070128;28;20198;-58
2022/03/04 08:03:12;;;;;;;26.60;15.60;;;;;;;;;;5069583;28;20222;-59
2022/03/04 08:05:38;;;;;;;25.90;15.63;;;;;;;;;;5052389;28;20272;-59
2022/03/04 08:08:03;;;;;;;25.90;16.67;;;;;;;;;;5049585;28;20594;-59
2022/03/04 08:10:28;;;;;;;26.60;15.37;;;;;;;;;;5050008;28;20207;-59
2022/03/04 08:12:53;;;;;;;27.07;15.80;;;;;;;;;;5049148;28;20211;-59
2022/03/04 08:15:19;;;;;;;27.13;15.33;;;;;;;;;;5052965;28;20593;-59
2022/03/04 08:17:45;;;;;;;26.83;15.97;;;;;;;;;;5049902;28;20215;-58
2022/03/04 08:20:11;;;;;;;24.77;15.63;;;;;;;;;;5048421;28;20250;-58
2022/03/04 08:22:36;;;;;;;26.38;16.17;;;;;;;;;;5068466;28;20238;-59
2022/03/04 08:25:01;;;;;;;27.98;16.30;;;;;;;;;;5069419;28;20611;-59
2022/03/04 08:27:27;;;;;;;27.10;16.73;;;;;;;;;;5050231;28;20213;-59
2022/03/04 08:29:52;;;;;;;26.55;16.17;;;;;;;;;;5049967;28;20223;-59
2022/03/04 08:32:19;;;;;;;28.95;17.02;;;;;;;;;;5053229;28;20622;-59
2022/03/04 08:34:44;;;;;;;28.50;16.15;;;;;;;;;;5041421;28;20225;-59
2022/03/04 08:37:10;;;;;;;25.98;16.58;;;;;;;;;;5072936;28;20210;-59
2022/03/04 08:39:35;;;;;;;27.20;17.30;;;;;;;;;;5073378;28;20578;-59
2022/03/04 08:42:00;;;;;;;24.35;15.77;;;;;;;;;;5072088;28;20254;-57
2022/03/04 08:44:26;;;;;;;28.77;18.00;;;;;;;;;;5067092;28;20524;-59
2022/03/04 08:46:51;;;;;;;27.65;17.00;;;;;;;;;;5053284;28;20211;-59
2022/03/04 08:49:19;;;;;;;28.23;17.27;;;;;;;;;;5051489;28;20235;-59
2022/03/04 08:51:44;;;;;;;28.48;17.92;;;;;;;;;;5035899;28;20222;-59
2022/03/04 08:54:09;;;;;;;27.53;18.03;;;;;;;;;;5053062;28;20435;-59
2022/03/04 08:56:35;;;;;;;28.27;18.00;;;;;;;;;;5071964;28;20598;-60
2022/03/04 08:59:00;;;;;;;29.73;18.63;;;;;;;;;;5072946;28;20210;-60
2022/03/04 09:01:26;;;;;;;29.00;18.10;;;;;;;;;;5072869;28;20207;-60
2022/03/04 09:03:51;;;;;;;28.40;18.08;;;;;;;;;;5071993;28;20507;-60
2022/03/04 09:06:16;;;;;;;26.23;17.38;;;;;;;;;;5072589;28;20217;-62
2022/03/04 09:08:42;;;;;;;28.23;20.83;;;;;;;;;;5071175;28;20924;-61
2022/03/04 09:11:07;;;;;;;29.08;18.98;;;;;;;;;;5072397;28;20498;-61
2022/03/04 09:13:33;;;;;;;28.55;18.58;;;;;;;;;;5072787;28;20233;-60
2022/03/04 09:15:59;;;;;;;29.27;18.27;;;;;;;;;;5054345;28;20210;-60
2022/03/04 09:18:25;;;;;;;29.00;18.63;;;;;;;;;;5071260;28;20233;-60
2022/03/04 09:20:50;;;;;;;27.00;18.38;;;;;;;;;;5072913;28;20238;-60
2022/03/04 09:23:15;;;;;;;26.92;18.27;;;;;;;;;;5055334;28;20238;-60
2022/03/04 09:25:40;;;;;;;27.92;17.88;;;;;;;;;;5056116;28;20211;-60
2022/03/04 09:28:06;;;;;;;31.80;18.63;;;;;;;;;;5071879;28;20223;-60
2022/03/04 09:30:33;;;;;;;26.50;17.90;;;;;;;;;;5071821;28;20556;-60
2022/03/04 09:32:58;;;;;;;29.17;18.40;;;;;;;;;;5072140;28;20640;-60
2022/03/04 09:35:24;;;;;;;30.10;19.85;;;;;;;;;;5071987;28;20249;-60
2022/03/04 09:37:50;;;;;;;29.13;18.42;;;;;;;;;;5071745;28;20206;-60
2022/03/04 09:40:15;;;;;;;27.33;17.92;;;;;;;;;;5053843;28;20225;-59
2022/03/04 09:42:41;;;;;;;30.10;18.53;;;;;;;;;;5072044;28;20222;-60
2022/03/04 09:45:07;;;;;;;29.00;18.65;;;;;;;;;;5058957;28;20633;-60
2022/03/04 09:47:32;;;;;;;29.25;18.45;;;;;;;;;;5052107;28;20242;-60
2022/03/04 09:49:58;;;;;;;28.83;18.52;;;;;;;;;;5051799;28;20237;-60
2022/03/04 09:52:23;;;;;;;29.25;18.83;;;;;;;;;;5033109;28;20223;-60
2022/03/04 09:54:49;;;;;;;28.25;18.77;;;;;;;;;;5052164;28;20709;-60
2022/03/04 09:57:14;;;;;;;29.38;18.50;;;;;;;;;;5051355;28;20222;-60
2022/03/04 09:59:40;;;;;;;27.75;18.17;;;;;;;;;;5051180;28;20294;-60
2022/03/04 10:02:05;;;;;;;27.67;18.50;;;;;;;;;;5051585;28;20257;-59
2022/03/04 10:04:33;;;;;;;28.13;18.77;;;;;;;;;;5051661;28;20556;-60
2022/03/04 10:07:00;;;;;;;26.73;17.90;;;;;;;;;;5051120;28;20287;-60
2022/03/04 10:09:33;;;;;;;27.33;18.35;;;;;;;;;;5033431;28;20342;-60
2022/03/04 10:12:03;;;;;;;27.70;17.92;;;;;;;;;;5051091;28;20211;-60
2022/03/04 10:14:28;;;;;;;27.85;17.77;;;;;;;;;;5031375;28;20210;-60
2022/03/04 10:16:55;;;;;;;27.67;18.17;;;;;;;;;;5031679;28;20212;-60
2022/03/04 10:19:20;;;;;;;28.88;18.20;;;;;;;;;;5028942;28;20270;-60
2022/03/04 10:21:46;;;;;;;27.08;17.33;;;;;;;;;;5031569;28;20212;-59
2022/03/04 10:24:11;;;;;;;28.48;19.02;;;;;;;;;;5031282;28;20208;-59
2022/03/04 10:26:37;;;;;;;29.20;18.77;;;;;;;;;;5042381;28;20245;-59
2022/03/04 10:29:17;;;;;;;28.42;19.02;;;;;;;;;;5050936;28;20304;-60
2022/03/04 10:31:52;;;;;;;29.23;18.85;;;;;;;;;;5050108;28;20206;-59
2022/03/04 10:34:18;;;;;;;27.85;18.52;;;;;;;;;;5048487;28;20280;-59
2022/03/04 10:36:52;;;;;;;26.15;17.85;;;;;;;;;;5051327;28;20203;-59
2022/03/04 10:39:18;;;;;;;28.30;19.23;;;;;;;;;;5050860;28;20221;-59
2022/03/04 10:41:48;;;;;;;28.38;18.88;;;;;;;;;;5049245;28;20214;-59
2022/03/04 10:44:24;;;;;;;28.00;19.05;;;;;;;;;;5046332;28;20208;-59
2022/03/04 10:46:53;;;;;;;30.63;20.05;;;;;;;;;;5031055;28;20211;-60
2022/03/04 10:49:24;;;;;;;25.77;18.15;;;;;;;;;;5029436;28;20574;-60
2022/03/04 10:51:49;;;;;;;28.33;18.08;;;;;;;;;;5029923;28;20216;-59
2022/03/04 10:54:16;;;;;;;30.15;18.58;;;;;;;;;;5029296;28;20215;-60
2022/03/04 10:56:49;;;;;;;27.50;18.77;;;;;;;;;;5031059;28;20222;-59
2022/03/04 10:59:14;;;;;;;28.33;18.60;;;;;;;;;;5030565;28;20334;-59
2022/03/04 11:01:45;;;;;;;26.20;17.35;;;;;;;;;;5030160;28;20789;-59
2022/03/04 11:04:10;;;;;;;27.25;17.95;;;;;;;;;;5030282;28;20245;-59
2022/03/04 11:06:35;;;;;;;27.63;18.20;;;;;;;;;;5029457;28;20204;-59
2022/03/04 11:09:00;;;;;;;28.20;18.35;;;;;;;;;;5028319;28;20235;-60
2022/03/04 11:11:26;;;;;;;26.13;18.42;;;;;;;;;;5030827;28;20235;-59
2022/03/04 11:13:51;;;;;;;26.38;18.63;;;;;;;;;;5030694;28;20262;-59
2022/03/04 11:16:16;;;;;;;27.95;18.58;;;;;;;;;;5028197;28;20216;-59
2022/03/04 11:18:41;;;;;;;26.27;18.13;;;;;;;;;;5030283;28;20405;-59
2022/03/04 11:21:07;;;;;;;27.40;18.33;;;;;;;;;;5030297;28;20208;-59
2022/03/04 11:23:33;;;;;;;27.20;19.15;;;;;;;;;;5029890;28;20541;-59
2022/03/04 11:25:59;;;;;;;30.75;18.73;;;;;;;;;;5035418;28;20220;-58
2022/03/04 11:28:27;;;;;;;27.20;18.52;;;;;;;;;;5049877;28;20310;-59
2022/03/04 11:30:58;;;;;;;28.40;18.85;;;;;;;;;;5049348;28;20286;-58
2022/03/04 11:33:29;;;;;;;27.23;18.80;;;;;;;;;;5038101;28;20233;-59
2022/03/04 11:35:54;;;;;;;27.33;18.67;;;;;;;;;;5030356;28;20242;-59
2022/03/04 11:38:38;;;;;;;28.92;18.27;;;;;;;;;;5061747;28;20242;-58
2022/03/04 11:41:04;;;;;;;26.67;19.38;;;;;;;;;;5069639;28;20206;-58
2022/03/04 11:43:43;;;;;;;27.55;18.85;;;;;;;;;;5067896;28;20210;-58
2022/03/04 11:46:14;;;;;;;26.73;17.98;;;;;;;;;;5037692;28;20214;-59
2022/03/04 11:48:40;;;;;;;27.90;19.15;;;;;;;;;;5028177;28;20220;-58
2022/03/04 11:51:13;;;;;;;26.95;18.40;;;;;;;;;;5029358;28;20211;-59
2022/03/04 11:53:38;;;;;;;25.30;17.88;;;;;;;;;;5030338;28;20286;-59
2022/03/04 11:56:07;;;;;;;27.02;18.30;;;;;;;;;;5028691;28;20311;-59
2022/03/04 11:58:51;;;;;;;26.30;17.83;;;;;;;;;;5029460;28;20203;-59
2022/03/04 12:01:16;;;;;;;26.23;18.80;;;;;;;;;;5029709;28;20211;-59
2022/03/04 12:04:01;;;;;;;26.20;18.05;;;;;;;;;;5028557;28;20681;-59
2022/03/04 12:06:26;;;;;;;27.00;17.90;;;;;;;;;;5033581;28;20211;-59
2022/03/04 12:08:51;;;;;;;25.48;17.55;;;;;;;;;;5034313;28;20687;-59
2022/03/04 12:11:22;;;;;;;25.95;17.55;;;;;;;;;;5033752;28;20226;-59
2022/03/04 12:13:47;;;;;;;23.50;16.90;;;;;;;;;;5033587;28;20698;-59
2022/03/04 12:16:14;;;;;;;28.25;18.40;;;;;;;;;;5033748;28;20212;-59
2022/03/04 12:18:39;;;;;;;26.30;18.77;;;;;;;;;;5032938;28;20218;-59
2022/03/04 12:21:07;;;;;;;26.42;17.70;;;;;;;;;;5033780;28;20302;-59
2022/03/04 12:23:44;;;;;;;25.45;17.08;;;;;;;;;;5034190;28;20204;-58
2022/03/04 12:26:11;;;;;;;25.27;18.00;;;;;;;;;;5040439;28;20229;-59
2022/03/04 12:28:39;;;;;;;27.70;17.85;;;;;;;;;;5052575;28;20250;-59
2022/03/04 12:31:05;;;;;;;24.73;17.60;;;;;;;;;;5053472;28;20261;-59
2022/03/04 12:33:32;;;;;;;26.88;17.10;;;;;;;;;;5052642;28;20210;-59
2022/03/04 12:35:57;;;;;;;25.48;17.27;;;;;;;;;;5053817;28;20749;-59
2022/03/04 12:38:23;;;;;;;24.98;17.00;;;;;;;;;;5053250;28;20291;-59
2022/03/04 12:40:49;;;;;;;24.73;17.63;;;;;;;;;;5053092;28;20223;-59
2022/03/04 12:43:14;;;;;;;25.25;17.42;;;;;;;;;;5051884;28;20230;-59
2022/03/04 12:45:39;;;;;;;25.85;17.27;;;;;;;;;;5037346;28;20210;-59
2022/03/04 12:48:04;;;;;;;25.30;17.23;;;;;;;;;;5031125;28;20569;-59
2022/03/04 12:50:30;;;;;;;27.13;17.13;;;;;;;;;;5033856;28;20616;-59
2022/03/04 12:52:55;;;;;;;24.05;16.65;;;;;;;;;;5032362;28;20216;-59
2022/03/04 12:55:20;;;;;;;27.65;16.67;;;;;;;;;;5031199;28;20860;-59
2022/03/04 12:57:49;;;;;;;23.95;16.02;;;;;;;;;;5032011;28;20211;-59
2022/03/04 13:00:14;;;;;;;24.38;15.90;;;;;;;;;;5032901;28;20683;-59
2022/03/04 13:02:41;;;;;;;23.48;16.20;;;;;;;;;;5031207;28;20207;-58
2022/03/04 13:05:06;;;;;;;22.42;15.80;;;;;;;;;;5032779;28;20208;-59
2022/03/04 13:07:34;;;;;;;23.20;16.60;;;;;;;;;;5032154;28;20210;-59
2022/03/04 13:09:59;;;;;;;22.13;14.85;;;;;;;;;;5032459;28;20220;-59
2022/03/04 13:12:24;;;;;;;22.58;15.70;;;;;;;;;;5032812;28;20223;-59
2022/03/04 13:14:50;;;;;;;23.25;15.65;;;;;;;;;;5032536;28;20204;-59
2022/03/04 13:17:15;;;;;;;22.45;15.00;;;;;;;;;;5031796;28;20920;-59
2022/03/04 13:19:40;;;;;;;22.75;14.88;;;;;;;;;;5032621;28;20219;-59
2022/03/04 13:22:06;;;;;;;21.75;14.52;;;;;;;;;;5031915;28;20204;-59
2022/03/04 13:24:34;;;;;;;20.73;15.05;;;;;;;;;;5031839;28;20224;-59
2022/03/04 13:27:00;;;;;;;21.67;14.30;;;;;;;;;;5031604;28;20743;-59
2022/03/04 13:29:32;;;;;;;24.45;14.77;;;;;;;;;;5031654;28;20302;-59
2022/03/04 13:32:05;;;;;;;19.98;13.85;;;;;;;;;;5032837;28;20215;-59
2022/03/04 13:34:30;;;;;;;20.75;14.52;;;;;;;;;;5032523;28;20235;-59
2022/03/04 13:36:58;;;;;;;23.20;14.25;;;;;;;;;;5032146;28;20265;-59
2022/03/04 13:39:26;;;;;;;22.10;14.25;;;;;;;;;;5032394;28;20208;-59
2022/03/04 13:42:06;;;;;;;19.90;13.35;;;;;;;;;;5031414;28;20311;-59
2022/03/04 13:44:32;;;;;;;23.27;13.98;;;;;;;;;;5038625;28;20211;-59
2022/03/04 13:46:58;;;;;;;20.92;13.63;;;;;;;;;;5052109;28;20564;-59
2022/03/04 13:49:24;;;;;;;20.10;14.02;;;;;;;;;;5032845;28;20215;-59
2022/03/04 13:51:59;;;;;;;18.95;13.13;;;;;;;;;;5031173;28;20211;-59
2022/03/04 13:54:24;;;;;;;18.95;13.25;;;;;;;;;;5031306;28;20211;-59
2022/03/04 13:56:49;;;;;;;19.05;12.95;;;;;;;;;;5030652;28;20205;-59
2022/03/04 13:59:14;;;;;;;18.27;12.52;;;;;;;;;;5030388;28;20601;-59
2022/03/04 14:01:40;;;;;;;21.27;13.95;;;;;;;;;;5032177;28;20216;-59
2022/03/04 14:04:07;;;;;;;19.45;13.25;;;;;;;;;;5030809;28;20310;-59
2022/03/04 14:06:32;;;;;;;21.30;12.95;;;;;;;;;;5032075;28;20258;-59
2022/03/04 14:08:58;;;;;;;19.88;13.20;;;;;;;;;;5030606;28;20227;-59